createdAt,value
2018-11-25T00:00:35.570Z,17.47
2018-11-25T00:04:39.112Z,17.33
2018-11-25T00:08:42.903Z,16.97
2018-11-25T00:12:46.911Z,18.67
2018-11-25T00:16:50.783Z,17.67
2018-11-25T00:20:54.858Z,16.27
2018-11-25T00:24:58.626Z,18.67
2018-11-25T00:29:02.900Z,19.47
2018-11-25T00:33:06.648Z,19.20
2018-11-25T00:37:10.137Z,17.73
2018-11-25T00:41:13.643Z,18.53
2018-11-25T00:45:19.114Z,18.23
2018-11-25T00:49:22.744Z,16.10
2018-11-25T00:53:26.973Z,15.87
2018-11-25T00:57:31.041Z,15.87
2018-11-25T01:01:34.887Z,14.33
2018-11-25T01:05:38.674Z,17.70
2018-11-25T01:09:42.523Z,17.43
2018-11-25T01:13:46.688Z,15.17
2018-11-25T01:17:50.793Z,16.30
2018-11-25T01:21:54.844Z,15.57
2018-11-25T01:25:58.826Z,15.10
2018-11-25T01:30:03.013Z,15.83
2018-11-25T01:34:07.452Z,16.33
2018-11-25T01:38:11.684Z,16.63
2018-11-25T01:42:15.831Z,16.60
2018-11-25T01:46:20.330Z,15.37
2018-11-25T01:50:24.123Z,16.07
2018-11-25T01:54:28.347Z,12.87
2018-11-25T01:58:32.515Z,16.53
2018-11-25T02:02:36.103Z,15.53
2018-11-25T02:06:39.652Z,16.60
2018-11-25T02:10:43.162Z,17.23
2018-11-25T02:14:46.638Z,15.43
2018-11-25T02:18:50.165Z,14.97
2018-11-25T02:22:54.978Z,16.70
2018-11-25T02:26:58.493Z,16.63
2018-11-25T02:31:02.637Z,15.70
2018-11-25T02:35:08.177Z,15.20
2018-11-25T02:39:11.730Z,15.67
2018-11-25T02:43:15.266Z,15.57
2018-11-25T02:47:18.774Z,14.43
2018-11-25T02:51:22.285Z,14.17
2018-11-25T02:55:26.539Z,14.97
2018-11-25T02:59:30.249Z,14.37
2018-11-25T03:03:34.093Z,13.53
2018-11-25T03:07:38.468Z,13.57
2018-11-25T03:11:42.456Z,13.27
2018-11-25T03:15:46.735Z,12.80
2018-11-25T03:19:50.817Z,14.03
2018-11-25T03:23:54.948Z,13.23
2018-11-25T03:27:58.783Z,12.77
2018-11-25T03:32:02.241Z,13.13
2018-11-25T03:36:05.911Z,13.17
2018-11-25T03:40:11.418Z,12.37
2018-11-25T03:44:14.947Z,12.17
2018-11-25T03:48:18.453Z,12.90
2018-11-25T03:52:22.120Z,13.10
2018-11-25T03:56:25.683Z,12.80
2018-11-25T04:00:29.222Z,12.63
2018-11-25T04:04:32.743Z,12.20
2018-11-25T04:08:36.211Z,14.07
2018-11-25T04:12:39.808Z,13.27
2018-11-25T04:16:43.478Z,13.47
2018-11-25T04:20:46.964Z,14.27
2018-11-25T04:24:50.579Z,12.13
2018-11-25T04:28:54.141Z,12.10
2018-11-25T04:32:57.656Z,12.23
2018-11-25T04:37:01.265Z,14.23
2018-11-25T04:41:05.067Z,11.67
2018-11-25T04:45:10.922Z,12.53
2018-11-25T04:49:14.434Z,13.47
2018-11-25T04:53:17.938Z,13.60
2018-11-25T04:57:21.447Z,13.80
2018-11-25T05:01:25.060Z,13.47
2018-11-25T05:05:28.564Z,13.03
2018-11-25T05:09:32.041Z,13.47
2018-11-25T05:13:35.572Z,13.53
2018-11-25T05:17:39.093Z,12.80
2018-11-25T05:21:42.602Z,13.07
2018-11-25T05:25:46.106Z,13.93
2018-11-25T05:29:49.543Z,15.53
2018-11-25T05:33:53.130Z,14.63
2018-11-25T05:37:56.613Z,15.57
2018-11-25T05:42:00.252Z,15.43
2018-11-25T05:46:03.782Z,15.17
2018-11-25T05:50:09.954Z,15.40
2018-11-25T05:54:13.547Z,15.27
2018-11-25T05:58:17.108Z,15.63
2018-11-25T06:02:20.696Z,14.33
2018-11-25T06:06:24.199Z,14.70
2018-11-25T06:10:27.675Z,15.07
2018-11-25T06:14:31.370Z,15.47
2018-11-25T06:18:35.026Z,14.90
2018-11-25T06:22:38.593Z,15.17
2018-11-25T06:26:42.156Z,14.60
2018-11-25T06:30:45.836Z,14.73
2018-11-25T06:34:49.310Z,15.27
2018-11-25T06:38:52.834Z,17.07
2018-11-25T06:42:56.441Z,16.03
2018-11-25T06:47:00.001Z,17.53
2018-11-25T06:51:03.548Z,16.77
2018-11-25T06:55:08.896Z,15.97
2018-11-25T06:59:12.424Z,17.57
2018-11-25T07:03:15.956Z,16.93
2018-11-25T07:07:19.543Z,16.23
2018-11-25T07:11:23.085Z,17.03
2018-11-25T07:15:26.561Z,16.40
2018-11-25T07:19:30.111Z,18.03
2018-11-25T07:23:33.596Z,18.00
2018-11-25T07:27:37.091Z,17.80
2018-11-25T07:31:40.578Z,18.33
2018-11-25T07:35:44.090Z,17.90
2018-11-25T07:39:47.598Z,16.90
2018-11-25T07:43:51.096Z,17.53
2018-11-25T07:47:54.562Z,16.73
2018-11-25T07:51:58.150Z,18.90
2018-11-25T07:56:01.759Z,17.20
2018-11-25T08:00:37.360Z,16.00
2018-11-25T08:04:42.577Z,15.37
2018-11-25T08:08:46.627Z,14.40
2018-11-25T08:12:51.089Z,14.73
2018-11-25T08:16:55.290Z,13.33
2018-11-25T08:20:59.086Z,12.97
2018-11-25T08:25:05.189Z,12.90
2018-11-25T08:29:09.056Z,12.27
2018-11-25T08:33:14.249Z,12.87
2018-11-25T08:37:18.896Z,12.03
2018-11-25T08:41:23.216Z,11.47
2018-11-25T08:45:27.078Z,12.97
2018-11-25T08:49:31.458Z,11.83
2018-11-25T08:53:35.541Z,12.27
2018-11-25T08:57:39.460Z,12.80
2018-11-25T09:01:43.386Z,13.20
2018-11-25T09:05:47.227Z,13.70
2018-11-25T09:09:51.093Z,14.13
2018-11-25T09:13:55.424Z,14.87
2018-11-25T09:18:00.224Z,13.27
2018-11-25T09:22:05.630Z,13.37
2018-11-25T09:26:09.834Z,13.03
2018-11-25T09:30:16.642Z,14.03
2018-11-25T09:34:20.882Z,12.97
2018-11-25T09:38:24.670Z,14.60
2018-11-25T09:42:28.243Z,13.40
2018-11-25T09:46:31.851Z,13.17
2018-11-25T09:50:35.412Z,12.77
2018-11-25T09:54:39.333Z,12.73
2018-11-25T09:58:42.979Z,13.80
2018-11-25T10:02:46.484Z,13.53
2018-11-25T10:06:50.170Z,13.63
2018-11-25T10:10:53.841Z,14.40
2018-11-25T10:14:57.689Z,14.60
2018-11-25T10:19:01.373Z,13.53
2018-11-25T10:23:05.134Z,13.80
2018-11-25T10:27:08.616Z,13.30
2018-11-25T10:31:12.135Z,14.27
2018-11-25T10:35:15.591Z,15.00
2018-11-25T10:39:19.126Z,14.43
2018-11-25T10:43:22.894Z,12.97
2018-11-25T10:47:26.451Z,13.17
2018-11-25T10:51:32.172Z,13.20
2018-11-25T10:55:37.543Z,13.80
2018-11-25T10:59:41.440Z,13.90
2018-11-25T11:03:50.380Z,14.97
2018-11-25T11:07:54.100Z,13.37
2018-11-25T11:11:57.810Z,13.53
2018-11-25T11:16:01.579Z,13.33
2018-11-25T11:20:08.921Z,14.20
2018-11-25T11:24:12.576Z,14.60
2018-11-25T11:28:16.494Z,14.30
2018-11-25T11:32:20.527Z,14.13
2018-11-25T11:36:24.096Z,14.17
2018-11-25T11:40:27.627Z,14.03
2018-11-25T11:44:31.102Z,13.93
2018-11-25T11:48:34.619Z,13.53
2018-11-25T11:52:38.380Z,12.77
2018-11-25T11:56:41.970Z,12.97
2018-11-25T12:00:45.579Z,13.67
2018-11-25T12:04:49.185Z,14.20
2018-11-25T12:08:53.068Z,13.17
2018-11-25T12:12:56.615Z,13.20
2018-11-25T12:17:00.101Z,12.83
2018-11-25T12:21:03.599Z,11.60
2018-11-25T12:25:09.700Z,11.30
2018-11-25T12:29:13.249Z,11.70
2018-11-25T12:33:16.802Z,10.57
2018-11-25T12:37:20.327Z,11.13
2018-11-25T12:41:23.830Z,10.60
2018-11-25T12:45:27.345Z,10.50
2018-11-25T12:49:30.833Z,10.07
2018-11-25T12:53:34.299Z,10.47
2018-11-25T12:57:37.787Z,10.13
2018-11-25T13:01:41.311Z,11.43
2018-11-25T13:05:46.345Z,10.57
2018-11-25T13:09:48.447Z,9.90
2018-11-25T13:13:51.994Z,10.00
2018-11-25T13:17:55.519Z,10.30
2018-11-25T13:21:59.280Z,11.53
2018-11-25T13:26:04.117Z,11.40
2018-11-25T13:30:14.378Z,10.17
2018-11-25T13:34:17.903Z,10.17
2018-11-25T13:38:21.516Z,10.10
2018-11-25T13:42:24.955Z,11.80
2018-11-25T13:46:28.563Z,11.20
2018-11-25T13:50:32.008Z,10.83
2018-11-25T13:54:36.050Z,11.80
2018-11-25T13:58:39.568Z,11.20
2018-11-25T14:02:43.466Z,10.87
2018-11-25T14:06:47.349Z,11.20
2018-11-25T14:11:11.253Z,11.37
2018-11-25T14:15:15.228Z,10.97
2018-11-25T14:19:19.426Z,10.67
2018-11-25T14:23:23.595Z,11.87
2018-11-25T14:27:27.863Z,11.17
2018-11-25T14:31:32.567Z,11.57
2018-11-25T14:35:36.893Z,11.10
2018-11-25T14:39:40.841Z,11.20
2018-11-25T14:43:44.700Z,11.03
2018-11-25T14:47:48.560Z,12.60
2018-11-25T14:51:52.597Z,11.40
2018-11-25T14:55:56.617Z,11.23
2018-11-25T15:00:00.757Z,11.17
2018-11-25T15:04:06.174Z,10.37
2018-11-25T15:08:11.655Z,11.17
2018-11-25T15:12:16.230Z,11.60
2018-11-25T15:16:20.126Z,11.23
2018-11-25T15:20:23.861Z,9.93
2018-11-25T15:24:27.672Z,11.17
2018-11-25T15:28:31.250Z,11.10
2018-11-25T15:32:34.894Z,11.47
2018-11-25T15:36:38.996Z,11.80
2018-11-25T15:40:42.796Z,12.10
2018-11-25T15:44:46.692Z,11.63
2018-11-25T15:48:50.593Z,12.97
2018-11-25T15:52:54.549Z,11.60
2018-11-25T15:56:58.237Z,11.83
2018-11-25T16:01:03.532Z,11.73
2018-11-25T16:05:09.100Z,12.57
2018-11-25T16:09:12.926Z,13.03
2018-11-25T16:13:17.606Z,12.27
2018-11-25T16:17:21.423Z,11.27
2018-11-25T16:21:25.224Z,12.97
2018-11-25T16:25:34.427Z,12.93
2018-11-25T16:29:38.210Z,12.67
2018-11-25T16:33:42.039Z,13.10
2018-11-25T16:37:45.860Z,12.33
2018-11-25T16:41:49.863Z,13.30
2018-11-25T16:45:53.611Z,12.40
2018-11-25T16:49:57.274Z,13.20
2018-11-25T16:54:01.219Z,13.47
2018-11-25T16:58:05.094Z,12.63
2018-11-25T17:02:08.884Z,11.90
2018-11-25T17:06:12.905Z,12.63
2018-11-25T17:10:16.703Z,12.00
2018-11-25T17:14:20.218Z,11.60
2018-11-25T17:18:23.735Z,11.33
2018-11-25T17:22:27.241Z,11.67
2018-11-25T17:26:30.726Z,10.27
2018-11-25T17:30:34.172Z,12.47
2018-11-25T17:34:37.962Z,12.53
2018-11-25T17:38:41.934Z,11.17
2018-11-25T17:42:45.963Z,11.17
2018-11-25T17:46:49.452Z,11.07
2018-11-25T17:50:52.974Z,10.70
2018-11-25T17:54:56.445Z,11.07
2018-11-25T17:58:59.976Z,10.10
2018-11-25T18:03:04.223Z,10.30
2018-11-25T18:07:08.042Z,11.13
2018-11-25T18:11:11.904Z,9.73
2018-11-25T18:15:19.834Z,10.90
2018-11-25T18:19:24.946Z,10.80
2018-11-25T18:23:28.482Z,11.30
2018-11-25T18:27:32.083Z,10.27
2018-11-25T18:31:35.552Z,11.07
2018-11-25T18:35:39.081Z,10.30
2018-11-25T18:39:42.591Z,10.37
2018-11-25T18:43:46.087Z,9.67
2018-11-25T18:47:50.710Z,10.03
2018-11-25T18:51:54.216Z,10.30
2018-11-25T18:55:57.824Z,9.03
2018-11-25T19:00:02.537Z,10.57
2018-11-25T19:04:06.130Z,10.53
2018-11-25T19:08:10.095Z,10.03
2018-11-25T19:12:13.846Z,9.77
2018-11-25T19:16:17.502Z,9.27
2018-11-25T19:20:29.849Z,9.27
2018-11-25T19:24:33.478Z,8.87
2018-11-25T19:37:54.114Z,8.83
2018-11-25T19:41:57.887Z,10.00
2018-11-25T19:46:02.301Z,8.03
2018-11-25T19:50:10.075Z,8.87
2018-11-25T19:54:14.822Z,8.97
2018-11-25T19:58:19.833Z,8.63
2018-11-25T20:02:27.907Z,8.57
2018-11-25T20:06:31.592Z,8.03
2018-11-25T20:10:35.409Z,7.00
2018-11-25T20:14:39.054Z,7.70
2018-11-25T20:18:42.689Z,7.47
2018-11-25T20:22:46.585Z,8.13
2018-11-25T20:27:53.848Z,7.03
2018-11-25T20:32:02.884Z,7.47
2018-11-25T20:36:07.024Z,7.40
2018-11-25T20:40:10.805Z,6.70
2018-11-25T20:44:14.334Z,7.80
2018-11-25T20:48:17.850Z,7.67
2018-11-25T20:52:26.626Z,7.47
2018-11-25T20:56:30.635Z,8.37
2018-11-25T21:00:34.229Z,7.60
2018-11-25T21:04:37.744Z,7.80
2018-11-25T21:08:41.357Z,8.10
2018-11-25T21:12:46.288Z,8.13
2018-11-25T21:16:49.807Z,7.97
2018-11-25T21:20:53.295Z,8.63
2018-11-25T21:24:56.931Z,8.23
2018-11-25T21:29:00.751Z,8.77
2018-11-25T21:33:04.515Z,8.97
2018-11-25T21:37:08.022Z,8.73
2018-11-25T21:41:11.560Z,9.33
2018-11-25T21:45:16.122Z,9.50
2018-11-25T21:49:19.650Z,9.57
2018-11-25T21:53:23.207Z,9.60
2018-11-25T21:57:26.716Z,10.10
2018-11-25T22:01:30.310Z,10.63
2018-11-25T22:05:33.998Z,10.27
2018-11-25T22:09:37.660Z,10.60
2018-11-25T22:13:41.266Z,9.97
2018-11-25T22:17:44.806Z,9.97
2018-11-25T22:21:48.309Z,10.73
2018-11-25T22:25:52.135Z,10.30
2018-11-25T22:29:57.549Z,10.83
2018-11-25T22:34:01.668Z,11.20
2018-11-25T22:38:05.185Z,10.40
2018-11-25T22:42:08.693Z,9.70
2018-11-25T22:46:12.200Z,10.33
2018-11-25T22:50:18.920Z,10.83
2018-11-25T22:54:22.432Z,11.00
2018-11-25T22:58:26.257Z,10.50
2018-11-25T23:02:29.972Z,10.30
2018-11-25T23:07:10.089Z,11.23
2018-11-25T23:11:13.644Z,9.97
2018-11-25T23:15:17.216Z,10.13
2018-11-25T23:19:20.716Z,10.17
2018-11-25T23:23:24.238Z,10.47
2018-11-25T23:27:27.867Z,10.37
2018-11-25T23:31:31.387Z,10.77
2018-11-25T23:35:35.330Z,10.83
2018-11-25T23:39:38.924Z,10.37
2018-11-25T23:43:42.447Z,11.43
2018-11-25T23:47:46.054Z,10.23
2018-11-25T23:51:49.828Z,11.60
2018-11-25T23:55:53.409Z,11.17
2018-11-25T23:59:56.910Z,11.07
